createdAt,value
2018-08-28T00:02:15.084Z,19.13
2018-08-28T00:04:42.680Z,19.06
2018-08-28T00:07:10.288Z,19.05
2018-08-28T00:09:37.956Z,19.00
2018-08-28T00:12:05.692Z,18.97
2018-08-28T00:14:33.287Z,18.97
2018-08-28T00:17:00.938Z,18.91
2018-08-28T00:19:28.528Z,18.97
2018-08-28T00:21:56.244Z,18.92
2018-08-28T00:24:23.855Z,18.98
2018-08-28T00:26:51.464Z,19.04
2018-08-28T00:29:19.072Z,19.06
2018-08-28T00:31:46.724Z,19.16
2018-08-28T00:34:14.303Z,19.18
2018-08-28T00:36:41.949Z,19.16
2018-08-28T00:39:09.643Z,19.11
2018-08-28T00:41:37.219Z,19.06
2018-08-28T00:44:04.836Z,19.13
2018-08-28T00:46:32.441Z,19.14
2018-08-28T00:49:00.028Z,19.12
2018-08-28T00:51:27.684Z,19.09
2018-08-28T00:53:55.340Z,19.07
2018-08-28T00:56:22.906Z,18.96
2018-08-28T00:58:50.513Z,18.96
2018-08-28T01:01:18.096Z,19.04
2018-08-28T01:03:45.679Z,19.10
2018-08-28T01:06:13.244Z,19.20
2018-08-28T01:08:41.000Z,19.30
2018-08-28T01:11:09.044Z,19.33
2018-08-28T01:13:36.612Z,19.35
2018-08-28T01:16:04.356Z,19.19
2018-08-28T01:18:31.938Z,19.16
2018-08-28T01:20:59.512Z,19.09
2018-08-28T01:23:27.167Z,19.08
2018-08-28T01:25:54.756Z,19.23
2018-08-28T01:28:22.329Z,19.31
2018-08-28T01:30:49.981Z,19.27
2018-08-28T01:33:17.599Z,19.23
2018-08-28T01:35:45.195Z,19.30
2018-08-28T01:38:12.800Z,19.39
2018-08-28T01:40:40.360Z,19.44
2018-08-28T01:43:13.556Z,19.33
2018-08-28T01:45:41.170Z,19.22
2018-08-28T01:48:08.750Z,19.13
2018-08-28T01:50:36.466Z,19.13
2018-08-28T01:53:04.084Z,19.16
2018-08-28T01:55:31.723Z,19.13
2018-08-28T01:57:59.359Z,19.06
2018-08-28T02:00:26.970Z,19.03
2018-08-28T02:02:54.557Z,19.11
2018-08-28T02:05:22.171Z,19.18
2018-08-28T02:07:49.796Z,19.23
2018-08-28T02:10:17.412Z,19.29
2018-08-28T02:12:45.052Z,19.33
2018-08-28T02:15:12.681Z,19.33
2018-08-28T02:17:40.287Z,19.34
2018-08-28T02:20:08.016Z,19.29
2018-08-28T02:22:35.718Z,19.21
2018-08-28T02:25:03.468Z,19.11
2018-08-28T02:27:31.124Z,19.01
2018-08-28T02:29:58.736Z,19.06
2018-08-28T02:32:26.371Z,19.12
2018-08-28T02:34:54.055Z,19.19
2018-08-28T02:37:21.684Z,19.30
2018-08-28T02:39:49.336Z,19.28
2018-08-28T02:42:17.004Z,19.28
2018-08-28T02:44:44.701Z,19.28
2018-08-28T02:47:12.331Z,19.28
2018-08-28T02:49:39.987Z,19.33
2018-08-28T02:52:07.610Z,19.37
2018-08-28T02:54:35.226Z,19.41
2018-08-28T02:57:02.918Z,19.44
2018-08-28T02:59:30.544Z,19.53
2018-08-28T03:01:58.188Z,19.51
2018-08-28T03:04:25.860Z,19.50
2018-08-28T03:06:53.483Z,19.54
2018-08-28T03:09:21.127Z,19.52
2018-08-28T03:11:48.761Z,19.53
2018-08-28T03:14:16.383Z,19.52
2018-08-28T03:16:44.015Z,19.50
2018-08-28T03:19:11.683Z,19.46
2018-08-28T03:21:39.395Z,19.42
2018-08-28T03:24:07.024Z,19.37
2018-08-28T03:26:34.736Z,19.41
2018-08-28T03:29:02.453Z,19.42
2018-08-28T03:31:30.304Z,19.44
2018-08-28T03:33:57.983Z,19.42
2018-08-28T03:36:25.599Z,19.38
2018-08-28T03:38:53.172Z,19.41
2018-08-28T03:41:20.856Z,19.41
2018-08-28T03:43:48.478Z,19.38
2018-08-28T03:46:16.100Z,19.39
2018-08-28T03:48:43.764Z,19.29
2018-08-28T03:51:11.407Z,19.25
2018-08-28T03:53:39.043Z,19.25
2018-08-28T03:56:07.043Z,19.26
2018-08-28T03:58:34.688Z,19.26
2018-08-28T04:01:02.537Z,19.27
2018-08-28T04:03:30.262Z,19.25
2018-08-28T04:05:57.886Z,19.23
2018-08-28T04:08:25.542Z,19.20
2018-08-28T04:10:53.200Z,19.19
2018-08-28T04:13:20.900Z,19.18
2018-08-28T04:15:48.512Z,19.01
2018-08-28T04:18:16.140Z,19.10
2018-08-28T04:20:43.756Z,19.11
2018-08-28T04:23:11.406Z,19.16
2018-08-28T04:25:39.048Z,19.17
2018-08-28T04:28:06.683Z,19.19
2018-08-28T04:30:34.416Z,19.02
2018-08-28T04:33:02.045Z,18.89
2018-08-28T04:35:29.643Z,18.71
2018-08-28T04:37:57.294Z,18.83
2018-08-28T04:40:24.949Z,18.93
2018-08-28T04:42:52.591Z,18.91
2018-08-28T04:45:20.232Z,18.85
2018-08-28T04:47:47.854Z,18.81
2018-08-28T04:50:15.503Z,18.66
2018-08-28T04:52:43.113Z,18.53
2018-08-28T04:55:10.770Z,18.64
2018-08-28T04:57:38.383Z,18.75
2018-08-28T05:00:06.980Z,18.70
2018-08-28T05:02:35.923Z,18.76
2018-08-28T05:05:05.496Z,18.74
2018-08-28T05:07:33.256Z,18.70
2018-08-28T05:10:00.922Z,18.81
2018-08-28T05:12:28.563Z,18.85
2018-08-28T05:14:56.238Z,18.85
2018-08-28T05:17:24.224Z,18.78
2018-08-28T05:19:51.935Z,18.81
2018-08-28T05:22:19.580Z,18.80
2018-08-28T05:24:47.266Z,18.86
2018-08-28T05:27:15.069Z,18.90
2018-08-28T05:29:42.763Z,18.93
2018-08-28T05:32:10.398Z,18.97
2018-08-28T05:34:38.104Z,18.96
2018-08-28T05:37:05.927Z,18.89
2018-08-28T05:39:33.591Z,18.98
2018-08-28T05:42:01.231Z,18.99
2018-08-28T05:44:28.865Z,19.05
2018-08-28T05:46:56.631Z,19.19
2018-08-28T05:49:24.286Z,19.22
2018-08-28T05:51:51.944Z,19.30
2018-08-28T05:54:19.588Z,19.43
2018-08-28T05:56:47.210Z,19.53
2018-08-28T05:59:14.961Z,19.61
2018-08-28T06:01:42.775Z,19.60
2018-08-28T06:04:10.471Z,19.66
2018-08-28T06:06:38.090Z,19.65
2018-08-28T06:09:06.136Z,19.65
2018-08-28T06:11:33.766Z,19.69
2018-08-28T06:14:01.471Z,19.74
2018-08-28T06:16:29.136Z,19.76
2018-08-28T06:18:56.855Z,19.71
2018-08-28T06:21:24.715Z,19.69
2018-08-28T06:23:52.412Z,19.60
2018-08-28T06:26:20.038Z,19.54
2018-08-28T06:28:47.737Z,19.55
2018-08-28T06:31:15.385Z,19.56
2018-08-28T06:33:42.996Z,19.64
2018-08-28T06:36:10.607Z,19.69
2018-08-28T06:38:38.281Z,19.73
2018-08-28T06:41:06.047Z,19.75
2018-08-28T06:43:33.725Z,19.82
2018-08-28T06:46:01.356Z,19.97
2018-08-28T06:48:28.983Z,20.07
2018-08-28T06:50:56.621Z,20.15
2018-08-28T06:53:24.272Z,20.21
2018-08-28T06:55:52.131Z,20.42
2018-08-28T06:58:19.740Z,20.57
2018-08-28T07:00:47.399Z,20.75
2018-08-28T07:03:15.002Z,20.87
2018-08-28T07:05:42.707Z,21.00
2018-08-28T07:08:10.393Z,21.20
2018-08-28T07:10:38.000Z,21.30
2018-08-28T07:13:05.703Z,21.40
2018-08-28T07:15:33.387Z,21.47
2018-08-28T07:18:01.016Z,21.62
2018-08-28T07:20:28.699Z,21.69
2018-08-28T07:22:56.380Z,21.77
2018-08-28T07:25:24.021Z,22.04
2018-08-28T07:27:51.667Z,22.22
2018-08-28T07:30:19.367Z,22.56
2018-08-28T07:32:46.995Z,22.93
2018-08-28T07:35:14.731Z,23.03
2018-08-28T07:37:42.432Z,22.98
2018-08-28T07:40:10.091Z,22.79
2018-08-28T07:42:37.726Z,22.73
2018-08-28T07:45:05.600Z,22.56
2018-08-28T07:47:33.195Z,22.55
2018-08-28T07:50:00.856Z,22.62
2018-08-28T07:52:28.555Z,22.68
2018-08-28T07:54:56.176Z,22.71
2018-08-28T07:57:23.815Z,22.80
2018-08-28T07:59:51.466Z,22.90
2018-08-28T08:02:19.095Z,22.87
2018-08-28T08:04:46.725Z,22.81
2018-08-28T08:07:14.369Z,22.90
2018-08-28T08:09:42.012Z,23.14
2018-08-28T08:12:09.664Z,23.39
2018-08-28T08:14:37.366Z,23.41
2018-08-28T08:17:05.045Z,23.38
2018-08-28T08:19:32.692Z,23.17
2018-08-28T08:22:00.357Z,23.02
2018-08-28T08:24:27.986Z,22.90
2018-08-28T08:26:55.615Z,22.98
2018-08-28T08:29:23.264Z,22.94
2018-08-28T08:31:50.894Z,22.72
2018-08-28T08:34:18.521Z,22.66
2018-08-28T08:36:46.244Z,22.67
2018-08-28T08:39:13.850Z,22.69
2018-08-28T08:41:41.490Z,22.71
2018-08-28T08:44:09.181Z,22.68
2018-08-28T08:46:36.923Z,22.64
2018-08-28T08:49:04.648Z,22.61
2018-08-28T08:51:32.384Z,22.87
2018-08-28T08:54:00.050Z,23.09
2018-08-28T08:56:27.697Z,23.14
2018-08-28T08:58:55.403Z,23.13
2018-08-28T09:01:23.088Z,23.44
2018-08-28T09:03:50.717Z,23.79
2018-08-28T09:06:18.400Z,24.18
2018-08-28T09:08:46.021Z,24.23
2018-08-28T09:11:13.767Z,24.38
2018-08-28T09:13:41.428Z,24.57
2018-08-28T09:16:09.054Z,25.02
2018-08-28T09:18:36.676Z,25.33
2018-08-28T09:21:04.321Z,25.54
2018-08-28T09:23:31.935Z,25.62
2018-08-28T09:25:59.548Z,25.68
2018-08-28T09:28:27.206Z,25.85
2018-08-28T09:30:54.834Z,26.15
2018-08-28T09:33:22.492Z,26.40
2018-08-28T09:35:50.161Z,26.36
2018-08-28T09:38:17.884Z,27.21
2018-08-28T09:40:45.456Z,28.31
2018-08-28T09:43:13.111Z,28.99
2018-08-28T09:45:40.781Z,29.41
2018-08-28T09:48:08.433Z,29.54
2018-08-28T09:50:36.105Z,29.72
2018-08-28T09:53:03.731Z,30.28
2018-08-28T09:55:31.367Z,30.32
2018-08-28T09:57:58.999Z,29.36
2018-08-28T10:00:26.624Z,28.61
2018-08-28T10:02:54.433Z,29.48
2018-08-28T10:05:22.167Z,30.03
2018-08-28T10:07:50.172Z,30.28
2018-08-28T10:10:17.789Z,30.92
2018-08-28T10:12:45.459Z,31.03
2018-08-28T10:15:13.149Z,30.30
2018-08-28T10:17:41.012Z,31.11
2018-08-28T10:20:08.803Z,30.78
2018-08-28T10:22:36.562Z,30.10
2018-08-28T10:25:04.224Z,30.01
2018-08-28T10:27:31.986Z,30.76
2018-08-28T10:29:59.661Z,29.85
2018-08-28T10:32:27.228Z,29.33
2018-08-28T10:34:54.979Z,28.74
2018-08-28T10:37:22.632Z,28.17
2018-08-28T10:39:50.261Z,28.36
2018-08-28T10:42:17.923Z,29.29
2018-08-28T10:44:45.536Z,29.37
2018-08-28T10:47:13.162Z,28.89
2018-08-28T10:49:40.944Z,28.62
2018-08-28T10:52:08.679Z,28.47
2018-08-28T10:54:36.293Z,29.40
2018-08-28T10:57:03.997Z,29.06
2018-08-28T10:59:31.612Z,28.22
2018-08-28T11:01:59.255Z,27.57
2018-08-28T11:04:27.036Z,27.29
2018-08-28T11:06:54.639Z,27.00
2018-08-28T11:09:22.244Z,26.73
2018-08-28T11:11:49.918Z,27.09
2018-08-28T11:14:17.580Z,28.49
2018-08-28T11:16:45.202Z,28.58
2018-08-28T11:19:12.873Z,28.71
2018-08-28T11:21:40.488Z,28.80
2018-08-28T11:24:08.115Z,28.44
2018-08-28T11:26:35.775Z,28.20
2018-08-28T11:29:03.415Z,27.49
2018-08-28T11:31:31.056Z,26.83
2018-08-28T11:33:58.708Z,26.71
2018-08-28T11:36:26.401Z,26.54
2018-08-28T11:38:54.031Z,26.17
2018-08-28T11:41:21.811Z,25.90
2018-08-28T11:43:49.423Z,25.62
2018-08-28T11:46:17.071Z,25.34
2018-08-28T11:48:44.721Z,25.43
2018-08-28T11:51:12.336Z,25.58
2018-08-28T11:53:39.978Z,25.89
2018-08-28T11:56:07.671Z,26.23
2018-08-28T11:58:35.306Z,26.60
2018-08-28T12:01:02.937Z,26.83
2018-08-28T12:03:30.626Z,27.47
2018-08-28T12:05:58.255Z,27.57
2018-08-28T12:08:25.894Z,27.48
2018-08-28T12:10:53.564Z,27.80
2018-08-28T12:13:21.194Z,27.93
2018-08-28T12:15:48.801Z,28.57
2018-08-28T12:18:16.515Z,28.88
2018-08-28T12:20:44.204Z,29.16
2018-08-28T12:23:11.799Z,28.82
2018-08-28T12:25:39.504Z,28.93
2018-08-28T12:28:07.172Z,28.86
2018-08-28T12:30:34.818Z,30.18
2018-08-28T12:33:02.444Z,30.11
2018-08-28T12:35:30.081Z,30.06
2018-08-28T12:37:57.676Z,29.90
2018-08-28T12:40:25.376Z,29.90
2018-08-28T12:42:53.026Z,30.00
2018-08-28T12:45:20.651Z,30.03
2018-08-28T12:47:48.337Z,30.18
2018-08-28T12:50:15.974Z,30.98
2018-08-28T12:52:43.603Z,30.46
2018-08-28T12:55:11.293Z,30.01
2018-08-28T12:57:38.943Z,29.63
2018-08-28T13:00:06.664Z,29.56
2018-08-28T13:02:34.407Z,29.33
2018-08-28T13:05:02.017Z,29.84
2018-08-28T13:07:29.766Z,31.26
2018-08-28T13:09:57.348Z,33.33
2018-08-28T13:12:24.964Z,34.71
2018-08-28T13:14:52.731Z,35.39
2018-08-28T13:17:20.283Z,36.28
2018-08-28T13:19:48.054Z,36.51
2018-08-28T13:22:15.682Z,36.49
2018-08-28T13:24:43.340Z,37.01
2018-08-28T13:27:10.974Z,37.35
2018-08-28T13:29:38.654Z,37.51
2018-08-28T13:32:06.356Z,37.92
2018-08-28T13:34:33.988Z,36.36
2018-08-28T13:37:01.628Z,36.26
2018-08-28T13:39:29.261Z,36.93
2018-08-28T13:41:56.877Z,37.64
2018-08-28T13:44:24.475Z,38.08
2018-08-28T13:46:52.184Z,38.01
2018-08-28T13:49:19.821Z,37.03
2018-08-28T13:51:47.513Z,37.36
2018-08-28T13:54:15.246Z,37.59
2018-08-28T13:56:42.835Z,37.66
2018-08-28T13:59:10.657Z,37.73
2018-08-28T14:01:38.288Z,37.79
2018-08-28T14:04:05.918Z,38.16
2018-08-28T14:06:33.762Z,37.88
2018-08-28T14:09:01.451Z,37.95
2018-08-28T14:11:29.066Z,37.71
2018-08-28T14:13:56.785Z,37.52
2018-08-28T14:16:24.423Z,37.52
2018-08-28T14:18:52.063Z,37.57
2018-08-28T14:21:19.760Z,37.29
2018-08-28T14:23:47.471Z,37.59
2018-08-28T14:26:15.172Z,37.77
2018-08-28T14:28:42.874Z,37.62
2018-08-28T14:31:10.570Z,37.61
2018-08-28T14:33:38.224Z,37.45
2018-08-28T14:36:05.845Z,37.34
2018-08-28T14:38:33.552Z,37.26
2018-08-28T14:41:01.204Z,37.20
2018-08-28T14:43:28.835Z,37.21
2018-08-28T14:45:56.484Z,37.13
2018-08-28T14:48:24.128Z,36.72
2018-08-28T14:50:51.777Z,36.97
2018-08-28T14:53:19.460Z,36.68
2018-08-28T14:55:47.099Z,36.58
2018-08-28T14:58:14.708Z,36.58
2018-08-28T15:00:42.400Z,36.71
2018-08-28T15:03:10.031Z,36.49
2018-08-28T15:05:37.760Z,36.43
2018-08-28T15:08:05.436Z,36.62
2018-08-28T15:10:33.049Z,35.78
2018-08-28T15:13:00.691Z,35.71
2018-08-28T15:15:28.344Z,35.65
2018-08-28T15:17:56.007Z,35.50
2018-08-28T15:20:23.660Z,35.35
2018-08-28T15:22:51.314Z,35.06
2018-08-28T15:25:18.924Z,34.74
2018-08-28T15:27:46.555Z,34.72
2018-08-28T15:30:14.217Z,34.65
2018-08-28T15:32:41.909Z,34.74
2018-08-28T15:35:09.570Z,34.42
2018-08-28T15:37:37.235Z,34.10
2018-08-28T15:40:05.045Z,33.77
2018-08-28T15:42:32.786Z,33.26
2018-08-28T15:45:00.545Z,33.02
2018-08-28T15:47:28.148Z,32.78
2018-08-28T15:49:55.756Z,32.41
2018-08-28T15:52:23.424Z,31.93
2018-08-28T15:54:51.047Z,31.57
2018-08-28T15:57:18.664Z,31.13
2018-08-28T15:59:46.372Z,30.72
2018-08-28T16:02:14.010Z,30.27
2018-08-28T16:04:41.685Z,29.79
2018-08-28T16:07:09.346Z,29.41
2018-08-28T16:09:36.979Z,28.89
2018-08-28T16:12:04.665Z,28.49
2018-08-28T16:14:32.308Z,28.07
2018-08-28T16:16:59.942Z,27.78
2018-08-28T16:19:27.569Z,27.55
2018-08-28T16:21:57.128Z,27.29
2018-08-28T16:24:24.732Z,27.06
2018-08-28T16:26:52.855Z,26.94
2018-08-28T16:29:20.551Z,26.83
2018-08-28T16:31:48.194Z,26.63
2018-08-28T16:34:15.791Z,26.47
2018-08-28T16:36:43.442Z,26.31
2018-08-28T16:39:11.089Z,26.18
2018-08-28T16:41:38.743Z,26.05
2018-08-28T16:44:06.807Z,25.92
2018-08-28T16:46:34.870Z,25.84
2018-08-28T16:49:02.546Z,25.71
2018-08-28T16:51:30.188Z,25.58
2018-08-28T16:53:57.833Z,25.46
2018-08-28T16:56:25.452Z,25.36
2018-08-28T16:58:53.147Z,25.22
2018-08-28T17:01:21.045Z,25.20
2018-08-28T17:03:48.667Z,25.12
2018-08-28T17:06:16.394Z,24.97
2018-08-28T17:08:44.115Z,24.84
2018-08-28T17:11:11.783Z,24.73
2018-08-28T17:13:39.440Z,24.64
2018-08-28T17:16:07.045Z,24.52
2018-08-28T17:18:34.673Z,24.42
2018-08-28T17:21:02.337Z,24.35
2018-08-28T17:23:29.979Z,24.25
2018-08-28T17:25:57.596Z,24.18
2018-08-28T17:28:25.360Z,24.08
2018-08-28T17:30:53.014Z,23.99
2018-08-28T17:33:20.745Z,23.86
2018-08-28T17:35:48.372Z,23.78
2018-08-28T17:38:16.036Z,23.69
2018-08-28T17:40:43.781Z,23.59
2018-08-28T17:43:11.431Z,23.52
2018-08-28T17:45:39.128Z,23.45
2018-08-28T17:48:06.776Z,23.38
2018-08-28T17:50:34.433Z,23.30
2018-08-28T17:53:02.068Z,23.20
2018-08-28T17:55:29.705Z,23.11
2018-08-28T17:57:57.373Z,23.01
2018-08-28T18:00:25.040Z,22.96
2018-08-28T18:02:52.683Z,22.86
2018-08-28T18:05:20.336Z,22.81
2018-08-28T18:07:48.002Z,22.73
2018-08-28T18:10:15.644Z,22.66
2018-08-28T18:12:43.376Z,22.59
2018-08-28T18:15:11.016Z,22.56
2018-08-28T18:17:38.711Z,22.49
2018-08-28T18:20:06.439Z,22.39
2018-08-28T18:22:34.186Z,22.30
2018-08-28T18:25:01.748Z,22.25
2018-08-28T18:27:29.422Z,22.20
2018-08-28T18:29:57.193Z,22.09
2018-08-28T18:32:24.826Z,22.00
2018-08-28T18:34:52.483Z,21.90
2018-08-28T18:37:20.118Z,21.85
2018-08-28T18:39:47.771Z,21.79
2018-08-28T18:42:15.443Z,21.71
2018-08-28T18:44:43.171Z,21.67
2018-08-28T18:47:10.888Z,21.58
2018-08-28T18:49:38.574Z,21.51
2018-08-28T18:52:06.222Z,21.46
2018-08-28T18:54:33.843Z,21.40
2018-08-28T18:57:01.530Z,21.32
2018-08-28T18:59:29.157Z,21.22
2018-08-28T19:01:56.790Z,21.17
2018-08-28T19:04:24.471Z,21.16
2018-08-28T19:06:52.099Z,21.09
2018-08-28T19:09:19.913Z,21.05
2018-08-28T19:11:47.443Z,20.98
2018-08-28T19:14:15.080Z,20.90
2018-08-28T19:16:42.715Z,20.87
2018-08-28T19:19:11.194Z,20.80
2018-08-28T19:21:38.903Z,20.76
2018-08-28T19:24:06.887Z,20.73
2018-08-28T19:26:34.591Z,20.71
2018-08-28T19:29:02.238Z,20.70
2018-08-28T19:31:29.898Z,20.74
2018-08-28T19:33:57.552Z,20.74
2018-08-28T19:36:25.195Z,20.72
2018-08-28T19:38:52.894Z,20.67
2018-08-28T19:41:20.613Z,20.62
2018-08-28T19:43:48.445Z,20.60
2018-08-28T19:46:16.107Z,20.58
2018-08-28T19:48:43.770Z,20.59
2018-08-28T19:51:11.388Z,20.53
2018-08-28T19:53:39.112Z,20.58
2018-08-28T19:56:06.795Z,20.56
2018-08-28T19:58:34.423Z,20.57
2018-08-28T20:01:02.080Z,20.58
2018-08-28T20:03:29.751Z,20.53
2018-08-28T20:05:57.379Z,20.45
2018-08-28T20:08:25.028Z,20.39
2018-08-28T20:10:52.806Z,20.32
2018-08-28T20:13:20.673Z,20.25
2018-08-28T20:15:48.323Z,20.22
2018-08-28T20:18:16.013Z,20.21
2018-08-28T20:20:43.703Z,20.18
2018-08-28T20:23:11.304Z,20.13
2018-08-28T20:25:38.980Z,20.08
2018-08-28T20:28:06.618Z,20.04
2018-08-28T20:30:34.303Z,20.00
2018-08-28T20:33:02.060Z,20.00
2018-08-28T20:35:29.711Z,19.96
2018-08-28T20:37:57.353Z,19.90
2018-08-28T20:40:25.051Z,19.86
2018-08-28T20:42:52.703Z,19.83
2018-08-28T20:45:20.328Z,19.80
2018-08-28T20:47:47.981Z,19.76
2018-08-28T20:50:15.616Z,19.70
2018-08-28T20:52:43.228Z,19.66
2018-08-28T20:55:10.880Z,19.61
2018-08-28T20:57:38.477Z,19.59
2018-08-28T21:00:06.584Z,19.56
2018-08-28T21:02:34.223Z,19.54
2018-08-28T21:05:01.864Z,19.52
2018-08-28T21:07:29.576Z,19.49
2018-08-28T21:09:57.219Z,19.46
2018-08-28T21:12:25.062Z,19.41
2018-08-28T21:14:52.682Z,19.38
2018-08-28T21:17:20.348Z,19.35
2018-08-28T21:19:47.959Z,19.34
2018-08-28T21:22:15.579Z,19.27
2018-08-28T21:24:43.260Z,19.19
2018-08-28T21:27:10.955Z,19.15
2018-08-28T21:29:38.587Z,19.11
2018-08-28T21:32:06.359Z,19.08
2018-08-28T21:34:33.995Z,19.03
2018-08-28T21:37:01.676Z,19.01
2018-08-28T21:39:29.442Z,18.98
2018-08-28T21:41:57.079Z,18.92
2018-08-28T21:44:24.689Z,18.90
2018-08-28T21:46:52.351Z,18.87
2018-08-28T21:49:19.997Z,18.86
2018-08-28T21:51:47.629Z,18.83
2018-08-28T21:54:15.289Z,18.79
2018-08-28T21:56:42.903Z,18.74
2018-08-28T21:59:10.542Z,18.72
2018-08-28T22:01:38.203Z,18.68
2018-08-28T22:04:05.820Z,18.66
2018-08-28T22:06:39.161Z,18.65
2018-08-28T22:09:06.851Z,18.64
2018-08-28T22:11:34.928Z,18.61
2018-08-28T22:14:02.659Z,18.63
2018-08-28T22:16:30.311Z,18.61
2018-08-28T22:18:58.226Z,18.57
2018-08-28T22:21:25.886Z,18.52
2018-08-28T22:23:53.539Z,18.48
2018-08-28T22:26:21.203Z,18.45
2018-08-28T22:28:48.852Z,18.43
2018-08-28T22:31:16.480Z,18.40
2018-08-28T22:33:44.131Z,18.36
2018-08-28T22:36:11.833Z,18.35
2018-08-28T22:38:39.459Z,18.32
2018-08-28T22:41:07.148Z,18.28
2018-08-28T22:43:34.790Z,18.28
2018-08-28T22:46:02.447Z,18.25
2018-08-28T22:48:30.063Z,18.24
2018-08-28T22:50:57.716Z,18.24
2018-08-28T22:53:25.361Z,18.22
2018-08-28T22:55:52.986Z,18.21
2018-08-28T22:58:20.630Z,18.22
2018-08-28T23:00:48.262Z,18.25
2018-08-28T23:03:15.898Z,18.26
2018-08-28T23:05:43.539Z,18.27
2018-08-28T23:08:11.172Z,18.23
2018-08-28T23:10:39.849Z,18.24
2018-08-28T23:13:07.521Z,18.29
2018-08-28T23:15:35.157Z,18.32
2018-08-28T23:18:02.800Z,18.34
2018-08-28T23:20:30.495Z,18.35
2018-08-28T23:22:58.127Z,18.40
2018-08-28T23:25:25.732Z,18.40
2018-08-28T23:27:53.395Z,18.40
2018-08-28T23:30:21.024Z,18.37
2018-08-28T23:32:48.676Z,18.41
2018-08-28T23:35:16.320Z,18.40
2018-08-28T23:37:43.978Z,18.43
2018-08-28T23:40:11.627Z,18.37
2018-08-28T23:42:39.257Z,18.37
2018-08-28T23:45:07.030Z,18.39
2018-08-28T23:47:34.633Z,18.37
2018-08-28T23:50:02.312Z,18.37
2018-08-28T23:52:29.939Z,18.33
2018-08-28T23:54:57.558Z,18.32
2018-08-28T23:57:25.218Z,18.26
2018-08-28T23:59:52.824Z,18.30
